Wetterdaten: Woche 09.02.09 - 15.02.09 (KW7)
Datum Zeit Temperatur Luftfeuchte Luftdruck Niederschlag Wind Richtung Sonnenschein Solar Taupunkt Windchill Windben
09.02.2009 00:00 0.2 C 78 % 1011.4 hPa 0.0 l/m 0.8 km/h (0 Bft) S-SO 0.00 h 0 W/m -3.1 C 0.2 C 2.3 km/h (1 Bft)
09.02.2009 01:00 0.1 C 79 % 1011.4 hPa 0.0 l/m 0.8 km/h (0 Bft) S-SO 0.00 h 0 W/m -3.1 C 0.1 C 2.6 km/h (1 Bft)
09.02.2009 02:00 -0.2 C 80 % 1011.4 hPa 0.0 l/m 1.3 km/h (1 Bft) S-SO 0.00 h 0 W/m -3.3 C -0.2 C 3.5 km/h (1 Bft)
09.02.2009 03:00 -0.4 C 82 % 1011.3 hPa 0.0 l/m 1.7 km/h (1 Bft) SW 0.00 h 0 W/m -3.1 C -0.4 C 3.8 km/h (1 Bft)
09.02.2009 04:00 -0.5 C 83 % 1011.4 hPa 0.0 l/m 1.2 km/h (1 Bft) S 0.00 h 0 W/m -3.0 C -0.5 C 2.4 km/h (1 Bft)
09.02.2009 05:00 -1.5 C 87 % 1011.3 hPa 0.0 l/m 2.6 km/h (1 Bft) S-SO 0.00 h 0 W/m -3.4 C -1.6 C 3.8 km/h (1 Bft)
09.02.2009 06:00 -2.3 C 90 % 1011.2 hPa 0.0 l/m 2.9 km/h (1 Bft) O-SO 0.00 h 0 W/m -3.8 C -2.5 C 4.2 km/h (1 Bft)
09.02.2009 07:00 -2.8 C 91 % 1011.7 hPa 0.0 l/m 3.2 km/h (1 Bft) O 0.10 h 10 W/m -4.1 C -2.9 C 4.7 km/h (1 Bft)
09.02.2009 08:00 -2.3 C 92 % 1011.8 hPa 0.0 l/m 0.4 km/h (0 Bft) O 0.30 h 56 W/m -3.4 C -2.3 C 1.4 km/h (1 Bft)
09.02.2009 09:00 -0.6 C 87 % 1012.1 hPa 0.0 l/m 1.3 km/h (1 Bft) S 0.60 h 162 W/m -2.4 C -0.7 C 3.2 km/h (1 Bft)
09.02.2009 10:00 0.6 C 82 % 1012.1 hPa 0.0 l/m 4.1 km/h (1 Bft) SW 0.00 h 135 W/m -2.1 C -0.2 C 7.3 km/h (2 Bft)
09.02.2009 11:00 1.5 C 80 % 1012.4 hPa 0.0 l/m 3.8 km/h (1 Bft) S-SW 0.00 h 178 W/m -1.7 C 0.8 C 6.8 km/h (2 Bft)
09.02.2009 12:00 2.3 C 77 % 1012.3 hPa 0.0 l/m 4.1 km/h (1 Bft) S 0.05 h 212 W/m -1.3 C 1.7 C 8.1 km/h (2 Bft)
09.02.2009 13:00 2.8 C 76 % 1011.4 hPa 0.0 l/m 3.7 km/h (1 Bft) S 0.00 h 196 W/m -1.0 C 2.4 C 7.3 km/h (2 Bft)
09.02.2009 14:00 3.5 C 74 % 1010.7 hPa 0.0 l/m 3.2 km/h (1 Bft) S 0.08 h 192 W/m -0.8 C 3.1 C 6.7 km/h (2 Bft)
09.02.2009 15:00 3.5 C 74 % 1010.0 hPa 0.0 l/m 2.7 km/h (1 Bft) S-SO 0.00 h 88 W/m -0.8 C 3.3 C 5.6 km/h (1 Bft)
09.02.2009 16:00 3.0 C 76 % 1009.1 hPa 0.0 l/m 3.8 km/h (1 Bft) SO 0.00 h 48 W/m -0.8 C 2.7 C 6.2 km/h (2 Bft)
09.02.2009 17:00 2.7 C 76 % 1008.5 hPa 0.0 l/m 5.3 km/h (1 Bft) SO 0.08 h 23 W/m -1.1 C 1.5 C 7.8 km/h (2 Bft)
09.02.2009 18:00 2.7 C 77 % 1008.3 hPa 0.0 l/m 4.1 km/h (1 Bft) S-SO 0.00 h 0 W/m -1.0 C 2.1 C 7.4 km/h (2 Bft)
09.02.2009 19:00 1.8 C 85 % 1007.4 hPa 0.6 l/m 3.7 km/h (1 Bft) S-SO 0.00 h 0 W/m -0.4 C 1.2 C 6.7 km/h (2 Bft)
09.02.2009 20:00 1.9 C 91 % 1006.3 hPa 1.0 l/m 6.1 km/h (2 Bft) SW 0.00 h 0 W/m 0.6 C 0.3 C 11.1 km/h (2 Bft)
09.02.2009 21:00 2.4 C 93 % 1005.3 hPa 0.6 l/m 6.0 km/h (2 Bft) S-SW 0.00 h 0 W/m 1.4 C 1.0 C 10.7 km/h (2 Bft)
09.02.2009 22:00 3.0 C 93 % 1004.4 hPa 0.4 l/m 7.1 km/h (2 Bft) S-SW 0.00 h 0 W/m 2.0 C 1.1 C 13.0 km/h (3 Bft)
09.02.2009 23:00 3.6 C 94 % 1003.3 hPa 0.0 l/m 8.2 km/h (2 Bft) S-SO 0.00 h 0 W/m 2.6 C 1.6 C 14.6 km/h (3 Bft)
10.02.2009 00:00 3.8 C 93 % 1002.2 hPa 0.2 l/m 8.3 km/h (2 Bft) SW 0.00 h 0 W/m 2.8 C 1.8 C 15.8 km/h (3 Bft)
10.02.2009 01:00 4.2 C 93 % 1001.0 hPa 0.0 l/m 6.4 km/h (2 Bft) S-SO 0.00 h 0 W/m 3.1 C 2.8 C 12.1 km/h (2 Bft)
10.02.2009 02:00 4.7 C 92 % 999.7 hPa 0.0 l/m 7.8 km/h (2 Bft) S-SW 0.00 h 0 W/m 3.5 C 2.9 C 15.1 km/h (3 Bft)
10.02.2009 03:00 5.1 C 90 % 998.7 hPa 0.0 l/m 6.8 km/h (2 Bft) SW 0.00 h 0 W/m 3.6 C 3.6 C 12.5 km/h (3 Bft)
10.02.2009 04:00 5.9 C 87 % 997.3 hPa 0.0 l/m 12.2 km/h (2 Bft) S-SO 0.00 h 0 W/m 3.8 C 3.3 C 21.5 km/h (4 Bft)
10.02.2009 05:00 6.0 C 85 % 996.4 hPa 0.0 l/m 13.3 km/h (3 Bft) S-SO 0.00 h 0 W/m 3.6 C 3.3 C 23.3 km/h (4 Bft)
10.02.2009 06:00 6.1 C 84 % 995.6 hPa 0.0 l/m 13.1 km/h (3 Bft) S-SO 0.00 h 0 W/m 3.6 C 3.4 C 22.4 km/h (4 Bft)
10.02.2009 07:00 7.4 C 76 % 995.5 hPa 0.0 l/m 14.5 km/h (3 Bft) SW 0.05 h 12 W/m 3.5 C 4.9 C 24.0 km/h (4 Bft)
10.02.2009 08:00 8.6 C 69 % 995.3 hPa 0.2 l/m 23.2 km/h (4 Bft) W-SW 0.37 h 33 W/m 3.2 C 5.5 C 36.1 km/h (5 Bft)
10.02.2009 09:00 6.4 C 84 % 996.9 hPa 2.0 l/m 32.6 km/h (5 Bft) W 0.00 h 21 W/m 3.9 C 1.7 C 48.7 km/h (6 Bft)
10.02.2009 10:00 5.8 C 90 % 997.6 hPa 0.4 l/m 16.7 km/h (3 Bft) SW 0.00 h 45 W/m 4.2 C 2.5 C 24.8 km/h (4 Bft)
10.02.2009 11:00 6.6 C 83 % 998.6 hPa 0.0 l/m 15.2 km/h (3 Bft) SW 0.03 h 149 W/m 3.9 C 3.8 C 24.0 km/h (4 Bft)
10.02.2009 12:00 8.4 C 66 % 999.0 hPa 0.2 l/m 21.5 km/h (4 Bft) W 0.05 h 165 W/m 2.4 C 5.3 C 33.1 km/h (5 Bft)
10.02.2009 13:00 9.2 C 54 % 999.3 hPa 0.0 l/m 30.0 km/h (5 Bft) W 0.00 h 181 W/m 0.4 C 5.5 C 45.3 km/h (6 Bft)
10.02.2009 14:00 8.4 C 56 % 1000.0 hPa 0.0 l/m 30.7 km/h (5 Bft) W 0.03 h 128 W/m 0.1 C 4.5 C 45.0 km/h (6 Bft)
10.02.2009 15:00 5.9 C 74 % 1002.1 hPa 0.4 l/m 28.6 km/h (4 Bft) W 0.10 h 71 W/m 1.4 C 1.4 C 42.1 km/h (6 Bft)
10.02.2009 16:00 4.1 C 87 % 1004.0 hPa 0.4 l/m 19.4 km/h (3 Bft) W 0.00 h 37 W/m 2.1 C 0.1 C 29.6 km/h (5 Bft)
10.02.2009 17:00 4.3 C 82 % 1004.6 hPa 0.0 l/m 21.1 km/h (4 Bft) W 0.00 h 9 W/m 1.5 C 0.1 C 31.3 km/h (5 Bft)
10.02.2009 18:00 4.2 C 77 % 1005.7 hPa 0.0 l/m 18.7 km/h (3 Bft) W 0.00 h 0 W/m 0.6 C 0.3 C 29.0 km/h (5 Bft)
10.02.2009 19:00 3.7 C 81 % 1006.5 hPa 0.4 l/m 21.0 km/h (4 Bft) W 0.00 h 0 W/m 0.8 C -0.6 C 30.8 km/h (5 Bft)
10.02.2009 20:00 2.4 C 89 % 1007.5 hPa 0.6 l/m 19.0 km/h (3 Bft) W 0.00 h 0 W/m 0.9 C -2.0 C 28.0 km/h (4 Bft)
10.02.2009 21:00 2.2 C 91 % 1008.3 hPa 0.2 l/m 18.8 km/h (3 Bft) W 0.00 h 0 W/m 0.9 C -2.2 C 28.4 km/h (4 Bft)
10.02.2009 22:00 2.2 C 91 % 1009.2 hPa 0.4 l/m 18.4 km/h (3 Bft) W 0.00 h 0 W/m 0.8 C -2.2 C 27.6 km/h (4 Bft)
10.02.2009 23:00 2.1 C 90 % 1009.8 hPa 0.0 l/m 14.3 km/h (3 Bft) W 0.00 h 0 W/m 0.7 C -1.6 C 21.6 km/h (4 Bft)
11.02.2009 00:00 2.2 C 87 % 1010.3 hPa 0.0 l/m 17.1 km/h (3 Bft) W 0.00 h 0 W/m 0.2 C -2.0 C 25.8 km/h (4 Bft)
11.02.2009 01:00 2.1 C 86 % 1010.5 hPa 0.0 l/m 18.6 km/h (3 Bft) W 0.00 h 0 W/m -0.1 C -2.4 C 27.8 km/h (4 Bft)
11.02.2009 02:00 1.4 C 90 % 1011.3 hPa 0.0 l/m 16.4 km/h (3 Bft) W 0.00 h 0 W/m -0.0 C -2.9 C 24.7 km/h (4 Bft)
11.02.2009 03:00 1.3 C 90 % 1011.9 hPa 0.0 l/m 14.0 km/h (3 Bft) W 0.00 h 0 W/m -0.2 C -2.6 C 21.7 km/h (4 Bft)
11.02.2009 04:00 1.3 C 88 % 1012.3 hPa 0.0 l/m 17.1 km/h (3 Bft) W 0.00 h 0 W/m -0.5 C -3.1 C 26.2 km/h (4 Bft)
11.02.2009 05:00 0.9 C 88 % 1012.6 hPa 0.0 l/m 11.4 km/h (2 Bft) W 0.00 h 0 W/m -0.8 C -2.4 C 18.2 km/h (3 Bft)
11.02.2009 06:00 0.7 C 91 % 1012.9 hPa 0.2 l/m 13.0 km/h (3 Bft) W 0.00 h 0 W/m -0.6 C -3.1 C 19.8 km/h (4 Bft)
11.02.2009 07:00 0.7 C 91 % 1013.3 hPa 0.0 l/m 11.1 km/h (2 Bft) W 0.00 h 6 W/m -0.6 C -2.6 C 17.2 km/h (3 Bft)
11.02.2009 08:00 0.8 C 90 % 1013.9 hPa 0.2 l/m 9.8 km/h (2 Bft) W 0.00 h 20 W/m -0.7 C -2.1 C 15.1 km/h (3 Bft)
11.02.2009 09:00 0.8 C 91 % 1014.7 hPa 0.0 l/m 8.8 km/h (2 Bft) W 0.15 h 92 W/m -0.5 C -2.0 C 14.0 km/h (3 Bft)
11.02.2009 10:00 1.5 C 86 % 1015.1 hPa 0.0 l/m 7.4 km/h (2 Bft) W 0.53 h 240 W/m -0.6 C -0.7 C 12.1 km/h (2 Bft)
11.02.2009 11:00 2.0 C 81 % 1015.6 hPa 0.0 l/m 9.4 km/h (2 Bft) W 0.10 h 193 W/m -0.9 C -0.6 C 14.5 km/h (3 Bft)
11.02.2009 12:00 3.1 C 73 % 1015.4 hPa 0.0 l/m 12.8 km/h (3 Bft) W 0.62 h 411 W/m -1.2 C -0.1 C 19.7 km/h (3 Bft)
11.02.2009 13:00 4.1 C 67 % 1015.4 hPa 0.0 l/m 11.8 km/h (2 Bft) W 1.00 h 517 W/m -1.4 C 1.3 C 17.8 km/h (3 Bft)
11.02.2009 14:00 4.1 C 59 % 1015.4 hPa 0.0 l/m 12.2 km/h (2 Bft) W 0.63 h 281 W/m -3.1 C 1.2 C 18.9 km/h (3 Bft)
11.02.2009 15:00 4.1 C 57 % 1015.6 hPa 0.0 l/m 11.9 km/h (2 Bft) W 0.73 h 250 W/m -3.5 C 1.2 C 17.9 km/h (3 Bft)
11.02.2009 16:00 3.7 C 57 % 1015.8 hPa 0.0 l/m 8.6 km/h (2 Bft) W-NW 0.45 h 118 W/m -4.0 C 1.5 C 13.1 km/h (3 Bft)
11.02.2009 17:00 2.4 C 74 % 1016.2 hPa 0.0 l/m 5.8 km/h (2 Bft) W 0.12 h 17 W/m -1.8 C 0.9 C 9.1 km/h (2 Bft)
11.02.2009 18:00 1.1 C 78 % 1016.9 hPa 0.0 l/m 0.9 km/h (0 Bft) W-NW 0.00 h 0 W/m -2.3 C 1.1 C 2.1 km/h (1 Bft)
11.02.2009 19:00 0.4 C 82 % 1017.2 hPa 0.0 l/m 2.6 km/h (1 Bft) S-SO 0.00 h 0 W/m -2.4 C 0.1 C 4.0 km/h (1 Bft)
11.02.2009 20:00 0.7 C 81 % 1017.4 hPa 0.0 l/m 4.0 km/h (1 Bft) S-SO 0.00 h 0 W/m -2.3 C -0.1 C 6.2 km/h (2 Bft)
11.02.2009 21:00 1.1 C 77 % 1017.3 hPa 0.0 l/m 7.6 km/h (2 Bft) W 0.00 h 0 W/m -2.4 C -1.2 C 11.7 km/h (2 Bft)
11.02.2009 22:00 1.0 C 74 % 1017.1 hPa 0.0 l/m 7.0 km/h (2 Bft) W-NW 0.00 h 0 W/m -3.0 C -1.1 C 10.7 km/h (2 Bft)
11.02.2009 23:00 0.9 C 73 % 1016.7 hPa 0.0 l/m 3.6 km/h (1 Bft) W-NW 0.00 h 0 W/m -3.4 C 0.2 C 6.3 km/h (2 Bft)
12.02.2009 00:00 0.8 C 72 % 1016.7 hPa 0.0 l/m 4.6 km/h (1 Bft) W-NW 0.00 h 0 W/m -3.7 C -0.4 C 7.3 km/h (2 Bft)
12.02.2009 01:00 0.8 C 70 % 1016.2 hPa 0.0 l/m 5.1 km/h (1 Bft) W 0.00 h 0 W/m -4.0 C -0.4 C 7.7 km/h (2 Bft)
12.02.2009 02:00 0.5 C 73 % 1016.0 hPa 0.0 l/m 4.5 km/h (1 Bft) W 0.00 h 0 W/m -3.8 C -0.4 C 7.4 km/h (2 Bft)
12.02.2009 03:00 0.2 C 77 % 1015.4 hPa 0.0 l/m 4.8 km/h (1 Bft) S-SW 0.00 h 0 W/m -3.3 C -1.0 C 7.7 km/h (2 Bft)
12.02.2009 04:00 -0.0 C 83 % 1014.9 hPa 0.0 l/m 5.6 km/h (1 Bft) S-SW 0.00 h 0 W/m -2.6 C -1.7 C 8.8 km/h (2 Bft)
12.02.2009 05:00 -0.2 C 85 % 1014.6 hPa 0.0 l/m 5.0 km/h (1 Bft) SW 0.00 h 0 W/m -2.5 C -1.6 C 8.5 km/h (2 Bft)
12.02.2009 06:00 -0.1 C 84 % 1014.2 hPa 0.0 l/m 3.8 km/h (1 Bft) SW 0.00 h 0 W/m -2.6 C -0.9 C 6.7 km/h (2 Bft)
12.02.2009 07:00 -0.5 C 89 % 1014.3 hPa 0.0 l/m 3.0 km/h (1 Bft) S-SW 0.00 h 5 W/m -2.1 C -0.9 C 6.0 km/h (2 Bft)
12.02.2009 08:00 -0.7 C 93 % 1014.3 hPa 0.4 l/m 0.9 km/h (0 Bft) S 0.00 h 6 W/m -1.6 C -0.7 C 2.9 km/h (1 Bft)
12.02.2009 09:00 -0.6 C 95 % 1014.6 hPa 0.2 l/m 0.1 km/h (0 Bft) S 0.00 h 13 W/m -1.3 C -0.6 C 0.4 km/h (0 Bft)
12.02.2009 10:00 0.4 C 96 % 1015.4 hPa 1.4 l/m 0.6 km/h (0 Bft) S-SW 0.00 h 32 W/m -0.2 C 0.4 C 1.2 km/h (1 Bft)
12.02.2009 11:00 0.6 C 94 % 1016.6 hPa 0.6 l/m 1.9 km/h (1 Bft) W-NW 0.10 h 119 W/m -0.2 C 0.4 C 3.6 km/h (1 Bft)
12.02.2009 12:00 1.4 C 87 % 1017.1 hPa 0.2 l/m 0.6 km/h (0 Bft) W-NW 0.43 h 331 W/m -0.6 C 1.4 C 1.8 km/h (1 Bft)
12.02.2009 13:00 2.1 C 78 % 1017.5 hPa 0.0 l/m 1.8 km/h (1 Bft) W-NW 0.38 h 265 W/m -1.2 C 2.1 C 3.8 km/h (1 Bft)
12.02.2009 14:00 1.7 C 71 % 1018.0 hPa 0.0 l/m 1.7 km/h (1 Bft) O-NO 0.32 h 219 W/m -3.1 C 1.5 C 4.2 km/h (1 Bft)
12.02.2009 15:00 1.5 C 66 % 1018.6 hPa 0.0 l/m 1.2 km/h (1 Bft) N-NO 0.03 h 88 W/m -4.1 C 1.5 C 3.5 km/h (1 Bft)
12.02.2009 16:00 1.6 C 68 % 1019.3 hPa 0.0 l/m 1.2 km/h (1 Bft) O 0.47 h 101 W/m -3.6 C 1.6 C 2.4 km/h (1 Bft)
12.02.2009 17:00 1.3 C 64 % 1020.0 hPa 0.0 l/m 5.5 km/h (1 Bft) N-NW 0.27 h 29 W/m -4.8 C -0.0 C 9.6 km/h (2 Bft)
12.02.2009 18:00 0.2 C 69 % 1020.8 hPa 0.0 l/m 4.4 km/h (1 Bft) W-NW 0.00 h 0 W/m -4.7 C -0.8 C 7.2 km/h (2 Bft)
12.02.2009 19:00 -0.5 C 73 % 1021.5 hPa 0.0 l/m 1.4 km/h (1 Bft) W-NW 0.00 h 0 W/m -4.7 C -0.6 C 3.0 km/h (1 Bft)
12.02.2009 20:00 -1.4 C 78 % 1021.7 hPa 0.0 l/m 1.0 km/h (0 Bft) NW 0.00 h 0 W/m -4.7 C -1.5 C 2.6 km/h (1 Bft)
12.02.2009 21:00 -2.4 C 82 % 1021.7 hPa 0.0 l/m 0.3 km/h (0 Bft) NW 0.00 h 0 W/m -5.1 C -2.4 C 0.9 km/h (0 Bft)
12.02.2009 22:00 -3.4 C 85 % 1022.0 hPa 0.0 l/m 2.9 km/h (1 Bft) O 0.00 h 0 W/m -5.6 C -4.1 C 4.3 km/h (1 Bft)
12.02.2009 23:00 -3.7 C 86 % 1022.1 hPa 0.0 l/m 3.2 km/h (1 Bft) O 0.00 h 0 W/m -5.8 C -4.1 C 4.4 km/h (1 Bft)
13.02.2009 00:00 -2.9 C 86 % 1021.9 hPa 0.0 l/m 2.4 km/h (1 Bft) O 0.00 h 0 W/m -4.8 C -3.2 C 3.8 km/h (1 Bft)
13.02.2009 01:00 -2.0 C 86 % 1021.5 hPa 0.0 l/m 1.2 km/h (1 Bft) SO 0.00 h 0 W/m -4.1 C -2.0 C 3.3 km/h (1 Bft)
13.02.2009 02:00 -1.9 C 86 % 1021.5 hPa 0.0 l/m 1.1 km/h (1 Bft) SW 0.00 h 0 W/m -3.9 C -1.9 C 2.8 km/h (1 Bft)
13.02.2009 03:00 -2.0 C 86 % 1021.3 hPa 0.0 l/m 0.9 km/h (0 Bft) W 0.00 h 0 W/m -4.1 C -2.2 C 2.1 km/h (1 Bft)
13.02.2009 04:00 -2.3 C 87 % 1021.2 hPa 0.0 l/m 0.1 km/h (0 Bft) W 0.00 h 0 W/m -4.2 C -2.3 C 0.7 km/h (0 Bft)
13.02.2009 05:00 -2.3 C 87 % 1021.5 hPa 0.0 l/m 1.2 km/h (1 Bft) W-SW 0.00 h 0 W/m -4.1 C -2.3 C 2.9 km/h (1 Bft)
13.02.2009 06:00 -2.3 C 86 % 1021.5 hPa 0.0 l/m 2.5 km/h (1 Bft) S-SO 0.00 h 0 W/m -4.2 C -2.6 C 4.9 km/h (1 Bft)
13.02.2009 07:00 -2.8 C 87 % 1021.8 hPa 0.0 l/m 3.0 km/h (1 Bft) S-SO 0.00 h 7 W/m -4.6 C -3.3 C 5.1 km/h (1 Bft)
13.02.2009 08:00 -2.5 C 88 % 1022.0 hPa 0.0 l/m 2.6 km/h (1 Bft) S 0.00 h 49 W/m -4.2 C -2.7 C 5.2 km/h (1 Bft)
13.02.2009 09:00 -1.8 C 87 % 1022.1 hPa 0.0 l/m 2.7 km/h (1 Bft) S 0.00 h 101 W/m -3.6 C -2.1 C 5.1 km/h (1 Bft)
13.02.2009 10:00 -1.1 C 81 % 1022.1 hPa 0.0 l/m 5.6 km/h (1 Bft) W 0.02 h 131 W/m -3.9 C -2.7 C 8.9 km/h (2 Bft)
13.02.2009 11:00 -0.4 C 76 % 1022.0 hPa 0.0 l/m 8.1 km/h (2 Bft) W-SW 0.82 h 356 W/m -4.2 C -3.2 C 12.3 km/h (3 Bft)
13.02.2009 12:00 0.3 C 69 % 1021.4 hPa 0.0 l/m 9.0 km/h (2 Bft) W 0.50 h 321 W/m -4.6 C -2.6 C 13.7 km/h (3 Bft)
13.02.2009 13:00 1.3 C 63 % 1020.7 hPa 0.0 l/m 6.8 km/h (2 Bft) W-SW 0.60 h 336 W/m -4.9 C -0.6 C 10.1 km/h (2 Bft)
13.02.2009 14:00 2.2 C 59 % 1020.2 hPa 0.0 l/m 7.8 km/h (2 Bft) W-NW 0.72 h 356 W/m -4.9 C 0.1 C 11.7 km/h (2 Bft)
13.02.2009 15:00 1.9 C 58 % 1020.1 hPa 0.0 l/m 7.4 km/h (2 Bft) W 0.20 h 172 W/m -5.6 C -0.2 C 11.4 km/h (2 Bft)
13.02.2009 16:00 2.0 C 58 % 1019.8 hPa 0.0 l/m 5.5 km/h (1 Bft) W 0.52 h 95 W/m -5.4 C 0.5 C 8.5 km/h (2 Bft)
13.02.2009 17:00 1.7 C 60 % 1019.8 hPa 0.0 l/m 3.1 km/h (1 Bft) W 0.62 h 36 W/m -5.1 C 1.3 C 5.2 km/h (1 Bft)
13.02.2009 18:00 0.6 C 66 % 1019.9 hPa 0.0 l/m 1.8 km/h (1 Bft) S 0.00 h 0 W/m -5.0 C 0.6 C 3.3 km/h (1 Bft)
13.02.2009 19:00 -0.2 C 71 % 1020.1 hPa 0.0 l/m 0.2 km/h (0 Bft) S 0.00 h 0 W/m -4.9 C -0.2 C 0.9 km/h (0 Bft)
13.02.2009 20:00 -0.9 C 76 % 1020.3 hPa 0.0 l/m 1.4 km/h (1 Bft) S 0.00 h 0 W/m -4.5 C -1.0 C 2.3 km/h (1 Bft)
13.02.2009 21:00 -1.2 C 78 % 1020.4 hPa 0.0 l/m 2.6 km/h (1 Bft) SO 0.00 h 0 W/m -4.5 C -1.3 C 3.9 km/h (1 Bft)
13.02.2009 22:00 -1.1 C 79 % 1020.3 hPa 0.0 l/m 1.6 km/h (1 Bft) SO 0.00 h 0 W/m -4.3 C -1.1 C 3.3 km/h (1 Bft)
13.02.2009 23:00 -1.3 C 79 % 1020.1 hPa 0.0 l/m 0.4 km/h (0 Bft) SO 0.00 h 0 W/m -4.5 C -1.4 C 1.2 km/h (1 Bft)
14.02.2009 00:00 -1.6 C 79 % 1020.0 hPa 0.0 l/m 2.1 km/h (1 Bft) S-SO 0.00 h 0 W/m -4.8 C -1.8 C 4.4 km/h (1 Bft)
14.02.2009 01:00 -1.8 C 79 % 1019.8 hPa 0.0 l/m 0.8 km/h (0 Bft) S-SO 0.00 h 0 W/m -4.9 C -1.8 C 2.7 km/h (1 Bft)
14.02.2009 02:00 -1.9 C 80 % 1019.8 hPa 0.0 l/m 0.9 km/h (0 Bft) S 0.00 h 0 W/m -4.8 C -1.9 C 2.4 km/h (1 Bft)
14.02.2009 03:00 -2.2 C 83 % 1019.7 hPa 0.0 l/m 2.0 km/h (1 Bft) S-SO 0.00 h 0 W/m -4.6 C -2.3 C 4.6 km/h (1 Bft)
14.02.2009 04:00 -2.5 C 88 % 1019.3 hPa 0.0 l/m 1.9 km/h (1 Bft) SW 0.00 h 0 W/m -4.2 C -2.5 C 4.1 km/h (1 Bft)
14.02.2009 05:00 -2.7 C 90 % 1019.5 hPa 0.2 l/m 1.9 km/h (1 Bft) S 0.00 h 0 W/m -4.2 C -2.8 C 4.5 km/h (1 Bft)
14.02.2009 06:00 -3.0 C 92 % 1020.0 hPa 0.2 l/m 1.1 km/h (1 Bft) S 0.00 h 0 W/m -4.1 C -3.0 C 3.2 km/h (1 Bft)
14.02.2009 07:00 -3.2 C 93 % 1020.4 hPa 0.2 l/m 3.4 km/h (1 Bft) S-SO 0.00 h 5 W/m -4.2 C -3.9 C 6.6 km/h (2 Bft)
14.02.2009 08:00 -3.1 C 92 % 1021.0 hPa 0.2 l/m 3.8 km/h (1 Bft) S-SO 0.00 h 14 W/m -4.2 C -3.8 C 7.1 km/h (2 Bft)
14.02.2009 09:00 -2.3 C 90 % 1021.6 hPa 0.4 l/m 2.2 km/h (1 Bft) S-SO 0.00 h 65 W/m -3.8 C -2.4 C 4.8 km/h (1 Bft)
14.02.2009 10:00 -1.5 C 86 % 1022.1 hPa 0.0 l/m 2.8 km/h (1 Bft) S 0.00 h 112 W/m -3.5 C -1.9 C 5.8 km/h (2 Bft)
14.02.2009 11:00 -0.9 C 84 % 1022.8 hPa 0.0 l/m 0.6 km/h (0 Bft) O-SO 0.45 h 227 W/m -3.3 C -0.9 C 1.9 km/h (1 Bft)
14.02.2009 12:00 -0.1 C 84 % 1023.2 hPa 0.0 l/m 0.9 km/h (0 Bft) O-SO 0.70 h 294 W/m -2.5 C -0.1 C 2.4 km/h (1 Bft)
14.02.2009 13:00 0.6 C 79 % 1023.6 hPa 0.0 l/m 1.4 km/h (1 Bft) W-NW 0.35 h 249 W/m -2.5 C 0.6 C 3.1 km/h (1 Bft)
14.02.2009 14:00 1.1 C 77 % 1024.0 hPa 0.0 l/m 2.5 km/h (1 Bft) W-NW 0.25 h 219 W/m -2.4 C 0.9 C 4.5 km/h (1 Bft)
14.02.2009 15:00 1.2 C 77 % 1024.5 hPa 0.0 l/m 3.1 km/h (1 Bft) N-NW 0.10 h 145 W/m -2.4 C 0.9 C 5.6 km/h (1 Bft)
14.02.2009 16:00 0.6 C 83 % 1025.1 hPa 0.0 l/m 2.1 km/h (1 Bft) W-NW 0.00 h 93 W/m -2.0 C 0.5 C 3.8 km/h (1 Bft)
14.02.2009 17:00 0.1 C 84 % 1025.5 hPa 0.0 l/m 1.8 km/h (1 Bft) W-NW 0.27 h 28 W/m -2.2 C 0.0 C 3.5 km/h (1 Bft)
14.02.2009 18:00 -0.6 C 88 % 1026.3 hPa 0.0 l/m 1.5 km/h (1 Bft) NW 0.00 h 0 W/m -2.3 C -0.6 C 3.6 km/h (1 Bft)
14.02.2009 19:00 -1.3 C 89 % 1026.8 hPa 0.0 l/m 0.7 km/h (0 Bft) NW 0.00 h 0 W/m -2.8 C -1.3 C 1.6 km/h (1 Bft)
14.02.2009 20:00 -2.3 C 90 % 1027.4 hPa 0.0 l/m 3.3 km/h (1 Bft) O-SO 0.00 h 0 W/m -3.8 C -3.1 C 4.6 km/h (1 Bft)
14.02.2009 21:00 -3.3 C 91 % 1028.2 hPa 0.0 l/m 2.1 km/h (1 Bft) SO 0.00 h 0 W/m -4.6 C -3.6 C 3.5 km/h (1 Bft)
14.02.2009 22:00 -3.8 C 91 % 1028.7 hPa 0.0 l/m 1.4 km/h (1 Bft) SO 0.00 h 0 W/m -5.1 C -3.9 C 2.3 km/h (1 Bft)
14.02.2009 23:00 -3.6 C 92 % 1029.0 hPa 0.0 l/m 0.5 km/h (0 Bft) SO 0.00 h 0 W/m -4.7 C -3.6 C 1.4 km/h (1 Bft)
15.02.2009 00:00 -3.5 C 93 % 1029.2 hPa 0.0 l/m 1.1 km/h (1 Bft) O-SO 0.00 h 0 W/m -4.5 C -3.5 C 2.9 km/h (1 Bft)
15.02.2009 01:00 -4.3 C 92 % 1029.3 hPa 0.0 l/m 1.0 km/h (0 Bft) N-NW 0.00 h 0 W/m -5.4 C -4.4 C 2.4 km/h (1 Bft)
15.02.2009 02:00 -5.7 C 92 % 1029.4 hPa 0.0 l/m 2.2 km/h (1 Bft) NO 0.00 h 0 W/m -6.7 C -5.7 C 3.3 km/h (1 Bft)
15.02.2009 03:00 -6.9 C 92 % 1029.6 hPa 0.0 l/m 2.2 km/h (1 Bft) O-SO 0.00 h 0 W/m -8.0 C -6.9 C 3.5 km/h (1 Bft)
15.02.2009 04:00 -7.5 C 92 % 1029.8 hPa 0.0 l/m 0.3 km/h (0 Bft) O-SO 0.00 h 0 W/m -8.6 C -7.5 C 0.8 km/h (0 Bft)
15.02.2009 05:00 -7.9 C 91 % 1030.2 hPa 0.0 l/m 0.2 km/h (0 Bft) O-SO 0.00 h 0 W/m -9.1 C -7.9 C 0.4 km/h (0 Bft)
15.02.2009 06:00 -8.4 C 91 % 1030.2 hPa 0.0 l/m 0.4 km/h (0 Bft) O-SO 0.00 h 0 W/m -9.6 C -8.4 C 1.1 km/h (1 Bft)
15.02.2009 07:00 -8.5 C 90 % 1030.8 hPa 0.0 l/m 1.9 km/h (1 Bft) O-SO 0.02 h 10 W/m -9.8 C -8.5 C 3.1 km/h (1 Bft)
15.02.2009 08:00 -8.0 C 90 % 1031.1 hPa 0.0 l/m 0.5 km/h (0 Bft) O-SO 0.13 h 58 W/m -9.3 C -8.0 C 1.2 km/h (1 Bft)
15.02.2009 09:00 -6.2 C 89 % 1031.3 hPa 0.0 l/m 0.6 km/h (0 Bft) W-NW 1.00 h 192 W/m -7.8 C -6.2 C 1.5 km/h (1 Bft)
15.02.2009 10:00 -4.2 C 81 % 1031.0 hPa 0.0 l/m 1.5 km/h (1 Bft) W-NW 1.00 h 342 W/m -7.0 C -4.2 C 3.2 km/h (1 Bft)
15.02.2009 11:00 -2.3 C 73 % 1030.6 hPa 0.0 l/m 2.9 km/h (1 Bft) W-NW 1.00 h 425 W/m -6.4 C -2.8 C 5.0 km/h (1 Bft)
15.02.2009 12:00 -0.3 C 68 % 1029.9 hPa 0.0 l/m 1.6 km/h (1 Bft) NW 1.00 h 482 W/m -5.5 C -0.4 C 3.6 km/h (1 Bft)
15.02.2009 13:00 0.5 C 64 % 1029.3 hPa 0.0 l/m 2.2 km/h (1 Bft) O-SO 1.00 h 463 W/m -5.5 C 0.3 C 4.4 km/h (1 Bft)
15.02.2009 14:00 1.1 C 60 % 1028.6 hPa 0.0 l/m 3.6 km/h (1 Bft) O-SO 1.00 h 389 W/m -5.8 C 0.5 C 6.5 km/h (2 Bft)
15.02.2009 15:00 1.3 C 57 % 1028.1 hPa 0.0 l/m 3.0 km/h (1 Bft) O 1.00 h 257 W/m -6.2 C 0.9 C 5.5 km/h (1 Bft)
15.02.2009 16:00 1.0 C 60 % 1028.1 hPa 0.0 l/m 3.1 km/h (1 Bft) O-SO 0.42 h 106 W/m -6.0 C 0.5 C 5.2 km/h (1 Bft)
15.02.2009 17:00 -0.2 C 67 % 1028.3 hPa 0.0 l/m 4.4 km/h (1 Bft) O-SO 0.07 h 27 W/m -5.7 C -1.2 C 6.0 km/h (2 Bft)
15.02.2009 18:00 -1.1 C 67 % 1028.6 hPa 0.0 l/m 3.0 km/h (1 Bft) O-SO 0.00 h 0 W/m -6.6 C -1.7 C 4.3 km/h (1 Bft)
15.02.2009 19:00 -2.0 C 74 % 1028.8 hPa 0.0 l/m 3.0 km/h (1 Bft) O-SO 0.00 h 0 W/m -6.1 C -2.5 C 4.6 km/h (1 Bft)
15.02.2009 20:00 -2.3 C 75 % 1028.8 hPa 0.0 l/m 3.3 km/h (1 Bft) O-SO 0.00 h 0 W/m -6.1 C -3.0 C 4.6 km/h (1 Bft)
15.02.2009 21:00 -2.5 C 78 % 1028.7 hPa 0.0 l/m 1.8 km/h (1 Bft) O-SO 0.00 h 0 W/m -5.8 C -2.5 C 2.9 km/h (1 Bft)
15.02.2009 22:00 -2.6 C 79 % 1028.5 hPa 0.0 l/m 0.7 km/h (0 Bft) O-SO 0.00 h 0 W/m -5.7 C -2.6 C 0.9 km/h (0 Bft)
15.02.2009 23:00 -2.9 C 81 % 1028.3 hPa 0.0 l/m 2.2 km/h (1 Bft) O-SO 0.00 h 0 W/m -5.7 C -3.0 C 3.2 km/h (1 Bft)
Min-Datum _ 15.02.09 10.02.09 10.02.09 - 09.02.09 - - - 15.02.09 15.02.09 09.02.09
_ Min-Zeit 07:00 13:36 08:15 - 00:03 - - - 07:04 07:04 00:04
Minimum _ -8.7 C 52 % 995.0 hPa - 0.0 km/h (0 Bft) - - - -10.0 C -8.7 C 0.0 km/h (0 Bft)
Max-Datum _ 10.02.09 09.02.09 15.02.09 10.02.09 10.02.09 - 09.02.09 12.02.09 10.02.09 10.02.09 10.02.09
_ Max-Zeit 13:00 23:20 09:15 09:17 09:26 - 07:53 13:16 09:19 08:36 09:22
Maximum _ 9.4 C 98 % 1031.4 hPa 2.0 l/m 55.6 km/h
W (7 Bft)
- 0.02 h 740 W/m 4.6 C 7.7 C 81.7 km/h
W (9 Bft)
Durchschnitt _ 0.3 C 81 % 1016.7 hPa #12.4 l/m 5.9 km/h (2 Bft) W #21:55 h 151 W/m -2.7 C -0.8 C 9.6 km/h (2 Bft)
© Kaiko 2009